createdAt,value
2019-05-20T00:01:05.019Z,94.30
2019-05-20T00:03:31.507Z,94.40
2019-05-20T00:05:58.017Z,94.80
2019-05-20T00:08:24.507Z,94.20
2019-05-20T00:10:50.950Z,94.20
2019-05-20T00:13:17.464Z,94.30
2019-05-20T00:15:43.868Z,94.20
2019-05-20T00:18:10.420Z,94.40
2019-05-20T00:20:36.937Z,94.40
2019-05-20T00:23:04.783Z,95.00
2019-05-20T00:25:31.119Z,94.70
2019-05-20T00:27:57.448Z,95.10
2019-05-20T00:30:23.678Z,94.70
2019-05-20T00:32:50.432Z,94.50
2019-05-20T00:35:16.988Z,94.70
2019-05-20T00:37:43.666Z,94.70
2019-05-20T00:40:10.156Z,94.70
2019-05-20T00:42:36.555Z,94.80
2019-05-20T00:45:04.336Z,94.90
2019-05-20T00:47:30.552Z,94.90
2019-05-20T00:49:57.016Z,95.10
2019-05-20T00:52:23.559Z,95.30
2019-05-20T00:54:49.769Z,95.30
2019-05-20T00:57:16.387Z,95.20
2019-05-20T00:59:42.736Z,95.40
2019-05-20T01:02:09.146Z,95.40
2019-05-20T01:04:50.762Z,95.30
2019-05-20T01:07:40.987Z,95.20
2019-05-20T01:13:47.392Z,95.30
2019-05-20T01:16:13.615Z,95.20
2019-05-20T01:18:39.827Z,95.20
2019-05-20T01:21:14.816Z,95.40
2019-05-20T01:23:41.058Z,95.50
2019-05-20T01:28:58.590Z,95.50
2019-05-20T01:37:43.210Z,95.50
2019-05-20T01:40:09.799Z,95.60
2019-05-20T01:42:36.033Z,95.50
2019-05-20T01:45:04.233Z,95.60
2019-05-20T01:47:32.213Z,95.60
2019-05-20T01:49:58.622Z,95.40
2019-05-20T01:52:26.820Z,95.50
2019-05-20T01:54:53.291Z,95.50
2019-05-20T01:57:20.085Z,95.60
2019-05-20T01:59:46.482Z,95.50
2019-05-20T02:02:13.048Z,95.60
2019-05-20T02:04:39.511Z,95.70
2019-05-20T02:07:05.733Z,95.80
2019-05-20T02:09:32.207Z,96.00
2019-05-20T02:11:59.233Z,96.10
2019-05-20T02:14:33.512Z,96.00
2019-05-20T02:17:03.715Z,96.10
2019-05-20T02:19:30.140Z,96.10
2019-05-20T02:21:56.261Z,96.10
2019-05-20T02:24:23.062Z,96.20
2019-05-20T02:26:49.292Z,96.30
2019-05-20T02:29:15.436Z,96.30
2019-05-20T02:31:41.667Z,96.10
2019-05-20T02:34:07.924Z,96.00
2019-05-20T02:36:34.114Z,96.10
2019-05-20T02:39:00.335Z,96.10
2019-05-20T02:41:26.769Z,96.10
2019-05-20T02:43:52.943Z,96.10
2019-05-20T02:46:19.139Z,96.10
2019-05-20T02:48:45.506Z,96.30
2019-05-20T02:51:14.258Z,96.40
2019-05-20T02:53:40.470Z,96.40
2019-05-20T02:56:06.705Z,96.30
2019-05-20T02:58:33.356Z,96.10
2019-05-20T03:01:00.264Z,95.90
2019-05-20T03:03:27.036Z,95.80
2019-05-20T03:05:53.766Z,95.70
2019-05-20T03:08:20.310Z,95.60
2019-05-20T03:10:46.568Z,95.70
2019-05-20T03:13:22.070Z,95.70
2019-05-20T03:16:07.945Z,95.80
2019-05-20T03:19:34.582Z,95.80
2019-05-20T03:22:03.490Z,95.90
2019-05-20T03:24:31.892Z,96.00
2019-05-20T03:27:38.737Z,95.90
2019-05-20T03:30:36.969Z,96.00
2019-05-20T03:33:21.386Z,95.80
2019-05-20T03:35:59.547Z,95.90
2019-05-20T03:38:25.775Z,95.90
2019-05-20T03:44:03.191Z,96.10
2019-05-20T03:46:29.381Z,96.10
2019-05-20T03:48:55.834Z,96.20
2019-05-20T03:51:22.064Z,96.20
2019-05-20T03:53:51.600Z,96.20
2019-05-20T03:56:18.753Z,96.30
2019-05-20T03:58:45.149Z,96.30
2019-05-20T04:01:14.592Z,96.50
2019-05-20T04:03:41.020Z,96.50
2019-05-20T04:06:07.440Z,96.60
2019-05-20T04:08:33.909Z,96.70
2019-05-20T04:11:01.277Z,96.70
2019-05-20T04:13:28.128Z,96.80
2019-05-20T04:15:54.583Z,96.70
2019-05-20T04:18:21.339Z,96.80
2019-05-20T04:20:47.513Z,96.90
2019-05-20T04:23:13.806Z,96.80
2019-05-20T04:25:40.010Z,96.80
2019-05-20T04:28:06.200Z,96.80
2019-05-20T04:30:33.123Z,96.80
2019-05-20T04:32:59.455Z,96.80
2019-05-20T04:35:25.719Z,96.80
2019-05-20T04:37:51.942Z,96.80
2019-05-20T04:40:18.214Z,96.70
2019-05-20T04:42:44.422Z,96.70
2019-05-20T04:45:12.136Z,96.70
2019-05-20T04:47:38.459Z,96.70
2019-05-20T04:50:06.232Z,96.80
2019-05-20T04:52:32.321Z,96.70
2019-05-20T04:54:58.426Z,96.70
2019-05-20T04:57:24.638Z,96.60
2019-05-20T04:59:50.825Z,96.60
2019-05-20T05:02:16.946Z,96.70
2019-05-20T05:04:43.058Z,96.90
2019-05-20T05:07:09.302Z,96.80
2019-05-20T05:09:35.624Z,96.60
2019-05-20T05:12:04.277Z,96.60
2019-05-20T05:14:30.458Z,96.50
2019-05-20T05:16:56.887Z,96.50
2019-05-20T05:19:23.148Z,96.60
2019-05-20T05:21:49.381Z,96.70
2019-05-20T05:24:15.561Z,96.70
2019-05-20T05:26:41.754Z,96.50
2019-05-20T05:29:07.848Z,96.60
2019-05-20T05:31:33.961Z,96.60
2019-05-20T05:34:00.185Z,96.50
2019-05-20T05:36:26.272Z,96.30
2019-05-20T05:38:53.145Z,96.20
2019-05-20T05:41:19.683Z,96.20
2019-05-20T05:43:46.045Z,96.20
2019-05-20T05:46:12.365Z,96.10
2019-05-20T05:48:38.570Z,96.10
2019-05-20T05:51:04.832Z,96.20
2019-05-20T05:53:31.361Z,96.20
2019-05-20T05:55:57.735Z,96.10
2019-05-20T05:58:23.945Z,96.10
2019-05-20T06:00:50.151Z,96.20
2019-05-20T06:03:16.352Z,96.10
2019-05-20T06:05:42.504Z,96.10
2019-05-20T06:08:08.754Z,96.00
2019-05-20T06:10:35.894Z,96.10
2019-05-20T06:13:02.355Z,96.10
2019-05-20T06:15:28.615Z,96.00
2019-05-20T06:17:54.825Z,96.00
2019-05-20T06:20:21.195Z,96.00
2019-05-20T06:22:47.483Z,96.10
2019-05-20T06:25:14.288Z,96.30
2019-05-20T06:27:40.479Z,96.40
2019-05-20T06:30:09.935Z,96.70
2019-05-20T06:32:36.527Z,96.50
2019-05-20T06:35:05.931Z,96.40
2019-05-20T06:37:43.453Z,96.40
2019-05-20T06:40:09.932Z,96.40
2019-05-20T06:42:36.431Z,96.40
2019-05-20T06:45:06.756Z,96.30
2019-05-20T06:47:32.967Z,96.60
2019-05-20T06:49:59.077Z,96.30
2019-05-20T06:52:35.422Z,96.40
2019-05-20T06:54:54.231Z,96.50
2019-05-20T06:57:20.321Z,96.40
2019-05-20T06:59:47.654Z,96.40
2019-05-20T07:02:14.177Z,96.30
2019-05-20T07:04:40.377Z,96.30
2019-05-20T07:07:19.941Z,96.40
2019-05-20T07:09:34.517Z,96.30
2019-05-20T07:12:00.592Z,96.30
2019-05-20T07:14:26.722Z,96.30
2019-05-20T07:16:52.935Z,96.20
2019-05-20T07:19:19.138Z,96.20
2019-05-20T07:21:45.326Z,96.20
2019-05-20T07:24:11.703Z,96.20
2019-05-20T07:26:37.862Z,96.10
2019-05-20T07:29:04.158Z,96.30
2019-05-20T07:31:30.534Z,96.20
2019-05-20T07:33:56.803Z,95.80
2019-05-20T07:36:23.069Z,95.80
2019-05-20T07:38:49.361Z,95.20
2019-05-20T07:41:15.447Z,94.80
2019-05-20T07:43:41.860Z,94.80
2019-05-20T07:46:08.806Z,94.90
2019-05-20T07:48:35.740Z,94.60
2019-05-20T07:51:02.452Z,94.50
2019-05-20T07:53:29.929Z,94.50
2019-05-20T07:56:08.797Z,94.70
2019-05-20T07:58:36.399Z,94.60
2019-05-20T08:01:03.974Z,94.60
2019-05-20T08:03:30.211Z,94.70
2019-05-20T08:05:56.381Z,94.60
2019-05-20T08:08:22.909Z,94.70
2019-05-20T08:10:49.122Z,94.70
2019-05-20T08:13:15.230Z,94.50
2019-05-20T08:15:41.338Z,94.60
2019-05-20T08:18:07.546Z,94.80
2019-05-20T08:20:33.858Z,94.50
2019-05-20T08:22:59.994Z,94.10
2019-05-20T08:25:26.068Z,93.90
2019-05-20T08:27:52.190Z,93.60
2019-05-20T08:30:22.386Z,93.60
2019-05-20T08:32:48.572Z,93.60
2019-05-20T08:35:14.991Z,93.60
2019-05-20T08:37:45.771Z,93.30
2019-05-20T08:40:09.526Z,93.20
2019-05-20T08:42:35.729Z,93.20
2019-05-20T08:45:06.339Z,93.10
2019-05-20T08:47:33.041Z,93.20
2019-05-20T08:49:59.358Z,93.20
2019-05-20T08:52:25.537Z,93.20
2019-05-20T08:54:51.723Z,93.10
2019-05-20T08:57:17.848Z,92.90
2019-05-20T08:59:44.069Z,92.30
2019-05-20T09:02:10.414Z,92.00
2019-05-20T09:04:36.627Z,91.70
2019-05-20T09:07:02.938Z,91.30
2019-05-20T09:09:29.337Z,91.30
2019-05-20T09:11:55.602Z,91.60
2019-05-20T09:14:21.862Z,91.80
2019-05-20T09:16:48.769Z,92.10
2019-05-20T09:19:14.880Z,91.90
2019-05-20T09:21:41.055Z,92.20
2019-05-20T09:24:07.256Z,92.40
2019-05-20T09:26:33.661Z,92.70
2019-05-20T09:28:59.883Z,93.00
2019-05-20T09:31:26.075Z,93.10
2019-05-20T09:33:52.316Z,93.10
2019-05-20T09:36:18.507Z,93.30
2019-05-20T09:38:44.723Z,93.40
2019-05-20T09:41:11.279Z,93.30
2019-05-20T09:43:37.379Z,93.30
2019-05-20T09:46:07.693Z,93.40
2019-05-20T09:48:31.507Z,93.50
2019-05-20T09:50:57.697Z,93.30
2019-05-20T09:53:23.921Z,93.40
2019-05-20T09:55:50.118Z,93.40
2019-05-20T09:58:16.239Z,93.30
2019-05-20T10:00:42.338Z,93.40
2019-05-20T10:03:08.441Z,93.20
2019-05-20T10:05:37.150Z,93.30
2019-05-20T10:08:02.846Z,93.20
2019-05-20T10:10:29.005Z,93.50
2019-05-20T10:12:55.341Z,93.00
2019-05-20T10:15:26.220Z,92.80
2019-05-20T10:17:52.503Z,92.70
2019-05-20T10:20:18.873Z,92.50
2019-05-20T10:22:44.984Z,92.60
2019-05-20T10:25:11.317Z,92.80
2019-05-20T10:27:37.421Z,92.90
2019-05-20T10:30:09.205Z,93.00
2019-05-20T10:32:36.244Z,92.90
2019-05-20T10:35:04.866Z,93.30
2019-05-20T10:37:31.222Z,93.00
2019-05-20T10:39:57.617Z,92.90
2019-05-20T10:42:23.943Z,92.90
2019-05-20T10:44:52.230Z,93.10
2019-05-20T10:47:18.699Z,93.20
2019-05-20T10:49:45.087Z,93.30
2019-05-20T10:52:11.361Z,93.20
2019-05-20T10:54:37.734Z,93.20
2019-05-20T10:57:04.075Z,93.30
2019-05-20T10:59:34.627Z,93.30
2019-05-20T11:02:00.861Z,93.50
2019-05-20T11:04:45.544Z,93.70
2019-05-20T11:07:37.384Z,93.60
2019-05-20T11:10:06.776Z,93.50
2019-05-20T11:12:45.334Z,93.40
2019-05-20T11:15:12.008Z,93.30
2019-05-20T11:17:40.080Z,93.40
2019-05-20T11:20:28.563Z,93.30
2019-05-20T11:23:04.982Z,93.20
2019-05-20T11:25:31.231Z,93.00
2019-05-20T11:27:57.396Z,93.00
2019-05-20T11:30:23.652Z,93.00
2019-05-20T11:32:49.733Z,93.10
2019-05-20T11:35:16.060Z,93.00
2019-05-20T11:37:42.287Z,92.90
2019-05-20T11:40:10.466Z,92.80
2019-05-20T11:42:37.305Z,92.90
2019-05-20T11:45:08.312Z,92.90
2019-05-20T11:47:35.026Z,93.30
2019-05-20T11:50:03.195Z,93.10
2019-05-20T11:52:29.790Z,93.00
2019-05-20T11:54:56.049Z,92.90
2019-05-20T11:57:22.579Z,92.90
2019-05-20T11:59:48.772Z,92.80
2019-05-20T12:02:14.924Z,92.40
2019-05-20T12:04:41.102Z,92.40
2019-05-20T12:07:09.262Z,92.00
2019-05-20T12:09:48.869Z,91.80
2019-05-20T12:12:03.759Z,91.70
2019-05-20T12:14:29.958Z,91.50
2019-05-20T12:16:56.209Z,91.40
2019-05-20T12:19:22.677Z,91.50
2019-05-20T12:21:48.871Z,91.70
2019-05-20T12:24:15.057Z,91.50
2019-05-20T12:26:41.200Z,91.50
2019-05-20T12:29:07.372Z,91.50
2019-05-20T12:31:33.520Z,91.50
2019-05-20T12:33:59.647Z,91.50
2019-05-20T12:36:25.839Z,91.60
2019-05-20T12:38:51.986Z,91.70
2019-05-20T12:41:18.276Z,91.50
2019-05-20T12:43:45.187Z,91.30
2019-05-20T12:46:11.488Z,90.10
2019-05-20T12:48:37.717Z,90.00
2019-05-20T12:51:03.933Z,90.10
2019-05-20T12:53:30.126Z,90.00
2019-05-20T12:55:56.334Z,88.20
2019-05-20T12:58:22.538Z,88.80
2019-05-20T13:00:49.225Z,88.90
2019-05-20T13:03:15.426Z,88.90
2019-05-20T13:05:43.803Z,88.90
2019-05-20T13:08:09.909Z,89.30
2019-05-20T13:10:36.101Z,88.10
2019-05-20T13:13:02.241Z,87.70
2019-05-20T13:15:28.334Z,87.60
2019-05-20T13:17:54.460Z,88.30
2019-05-20T13:20:20.858Z,88.70
2019-05-20T13:22:46.949Z,88.50
2019-05-20T13:25:14.474Z,88.40
2019-05-20T13:27:40.600Z,88.30
2019-05-20T13:30:08.973Z,88.00
2019-05-20T13:32:35.645Z,88.30
2019-05-20T13:35:02.445Z,88.10
2019-05-20T13:37:28.736Z,88.50
2019-05-20T13:39:54.850Z,87.80
2019-05-20T13:42:21.066Z,87.30
2019-05-20T13:44:47.265Z,87.80
2019-05-20T13:47:13.461Z,87.60
2019-05-20T13:49:39.664Z,87.60
2019-05-20T13:52:06.052Z,87.80
2019-05-20T13:54:32.183Z,88.00
2019-05-20T13:56:58.571Z,88.40
2019-05-20T13:59:24.826Z,88.60
2019-05-20T14:01:50.988Z,89.00
2019-05-20T14:04:17.107Z,89.10
2019-05-20T14:06:43.307Z,89.10
2019-05-20T14:09:09.448Z,89.70
2019-05-20T14:11:35.645Z,90.00
2019-05-20T14:14:01.761Z,89.90
2019-05-20T14:16:27.881Z,89.80
2019-05-20T14:18:54.093Z,89.80
2019-05-20T14:21:20.274Z,89.60
2019-05-20T14:23:46.402Z,89.20
2019-05-20T14:26:12.490Z,88.90
2019-05-20T14:28:38.707Z,89.50
2019-05-20T14:31:06.081Z,89.60
2019-05-20T14:33:32.514Z,89.70
2019-05-20T14:35:58.989Z,89.90
2019-05-20T14:38:25.173Z,90.00
2019-05-20T14:40:51.276Z,90.30
2019-05-20T14:43:17.468Z,90.20
2019-05-20T14:45:43.660Z,90.20
2019-05-20T14:48:10.024Z,90.40
2019-05-20T14:50:36.472Z,90.60
2019-05-20T14:53:03.873Z,90.10
2019-05-20T14:55:29.979Z,89.70
2019-05-20T14:57:56.195Z,89.50
2019-05-20T15:00:23.456Z,90.00
2019-05-20T15:02:49.673Z,90.40
2019-05-20T15:05:15.952Z,90.60
2019-05-20T15:07:42.153Z,90.80
2019-05-20T15:10:08.942Z,91.00
2019-05-20T15:12:35.102Z,91.10
2019-05-20T15:15:01.399Z,91.40
2019-05-20T15:17:27.592Z,91.60
2019-05-20T15:19:53.779Z,91.80
2019-05-20T15:22:20.103Z,91.80
2019-05-20T15:24:46.320Z,91.90
2019-05-20T15:27:12.600Z,92.10
2019-05-20T15:29:38.794Z,92.20
2019-05-20T15:32:04.903Z,92.30
2019-05-20T15:34:31.022Z,92.30
2019-05-20T15:36:57.280Z,92.40
2019-05-20T15:39:23.526Z,92.70
2019-05-20T15:41:49.710Z,92.80
2019-05-20T15:44:15.920Z,92.80
2019-05-20T15:46:42.064Z,92.90
2019-05-20T15:49:08.288Z,92.90
2019-05-20T15:51:34.946Z,93.10
2019-05-20T15:54:01.120Z,93.10
2019-05-20T15:56:27.235Z,93.20
2019-05-20T15:58:53.423Z,93.20
2019-05-20T16:01:19.656Z,93.10
2019-05-20T16:03:45.760Z,93.00
2019-05-20T16:06:12.105Z,92.90
2019-05-20T16:08:38.277Z,92.80
2019-05-20T16:11:06.888Z,92.40
2019-05-20T16:13:32.515Z,92.30
2019-05-20T16:15:58.647Z,92.30
2019-05-20T16:18:24.822Z,92.40
2019-05-20T16:20:50.941Z,92.40
2019-05-20T16:23:17.127Z,92.30
2019-05-20T16:25:43.283Z,92.50
2019-05-20T16:28:09.557Z,92.50
2019-05-20T16:30:35.759Z,92.20
2019-05-20T16:33:01.985Z,92.30
2019-05-20T16:35:28.287Z,92.10
2019-05-20T16:37:54.508Z,92.10
2019-05-20T16:40:20.824Z,92.00
2019-05-20T16:42:47.037Z,92.20
2019-05-20T16:45:13.478Z,92.20
2019-05-20T16:47:39.871Z,92.30
2019-05-20T16:50:10.001Z,92.30
2019-05-20T16:52:36.527Z,92.30
2019-05-20T16:55:04.158Z,92.40
2019-05-20T16:57:30.399Z,92.40
2019-05-20T16:59:56.623Z,92.50
2019-05-20T17:02:22.905Z,92.80
2019-05-20T17:04:54.658Z,92.60
2019-05-20T17:07:20.809Z,93.00
2019-05-20T17:09:46.904Z,92.80
2019-05-20T17:12:13.190Z,92.80
2019-05-20T17:14:39.293Z,93.00
2019-05-20T17:17:08.450Z,93.10
2019-05-20T17:19:36.603Z,93.10
2019-05-20T17:22:04.212Z,93.00
2019-05-20T17:24:30.433Z,93.00
2019-05-20T17:26:56.544Z,93.00
2019-05-20T17:29:22.723Z,93.00
2019-05-20T17:31:48.964Z,92.80
2019-05-20T17:34:15.129Z,92.80
2019-05-20T17:36:41.331Z,92.80
2019-05-20T17:39:07.487Z,92.70
2019-05-20T17:41:33.643Z,92.70
2019-05-20T17:43:59.899Z,92.80
2019-05-20T17:46:25.992Z,92.70
2019-05-20T17:48:53.675Z,92.90
2019-05-20T17:51:19.876Z,92.90
2019-05-20T17:53:46.083Z,93.00
2019-05-20T17:56:12.618Z,93.20
2019-05-20T17:58:38.966Z,93.30
2019-05-20T18:01:14.908Z,93.50
2019-05-20T18:03:33.154Z,94.00
2019-05-20T18:05:59.379Z,93.90
2019-05-20T18:08:27.624Z,93.90
2019-05-20T18:10:53.810Z,94.00
2019-05-20T18:13:20.051Z,94.00
2019-05-20T18:15:46.213Z,93.90
2019-05-20T18:18:12.346Z,94.30
2019-05-20T18:20:40.729Z,94.30
2019-05-20T18:23:07.193Z,94.40
2019-05-20T18:25:33.700Z,94.60
2019-05-20T18:27:59.941Z,94.60
2019-05-20T18:30:26.229Z,94.80
2019-05-20T18:32:52.765Z,95.00
2019-05-20T18:35:19.084Z,95.10
2019-05-20T18:37:45.289Z,95.20
2019-05-20T18:40:14.525Z,95.30
2019-05-20T18:42:40.043Z,95.30
2019-05-20T18:45:07.039Z,95.40
2019-05-20T18:47:33.411Z,95.50
2019-05-20T18:49:59.581Z,96.10
2019-05-20T18:52:25.779Z,96.00
2019-05-20T18:54:51.924Z,96.20
2019-05-20T18:57:18.288Z,96.10
2019-05-20T18:59:44.497Z,96.20
2019-05-20T19:02:10.624Z,96.30
2019-05-20T19:04:36.803Z,96.40
2019-05-20T19:07:02.931Z,96.40
2019-05-20T19:09:29.127Z,96.50
2019-05-20T19:11:55.254Z,96.60
2019-05-20T19:14:21.492Z,96.60
2019-05-20T19:16:47.660Z,96.60
2019-05-20T19:19:13.780Z,96.60
2019-05-20T19:21:39.975Z,96.60
2019-05-20T19:24:06.285Z,96.70
2019-05-20T19:26:32.475Z,96.70
2019-05-20T19:28:58.655Z,96.90
2019-05-20T19:31:24.958Z,96.80
2019-05-20T19:33:51.211Z,96.90
2019-05-20T19:36:17.341Z,96.90
2019-05-20T19:38:45.350Z,96.90
2019-05-20T19:41:11.456Z,97.00
2019-05-20T19:43:37.779Z,97.20
2019-05-20T19:46:04.014Z,97.30
2019-05-20T19:48:30.293Z,97.40
2019-05-20T19:50:56.506Z,97.40
2019-05-20T19:53:24.372Z,97.60
2019-05-20T19:55:50.603Z,97.80
2019-05-20T19:58:16.904Z,97.90
2019-05-20T20:00:43.402Z,98.00
2019-05-20T20:03:09.672Z,98.10
2019-05-20T20:05:35.866Z,98.10
2019-05-20T20:08:02.156Z,98.10
2019-05-20T20:10:28.349Z,98.10
2019-05-20T20:12:54.474Z,98.30
2019-05-20T20:15:20.581Z,98.50
2019-05-20T20:17:46.716Z,98.40
2019-05-20T20:20:13.209Z,98.40
2019-05-20T20:22:39.466Z,98.50
2019-05-20T20:25:05.827Z,98.60
2019-05-20T20:27:31.999Z,98.70
2019-05-20T20:29:58.188Z,98.80
2019-05-20T20:32:37.262Z,99.10
2019-05-20T20:34:52.502Z,98.90
2019-05-20T20:37:18.744Z,99.00
2019-05-20T20:39:44.816Z,99.10
2019-05-20T20:42:11.027Z,99.20
2019-05-20T20:44:37.232Z,99.30
2019-05-20T20:47:03.386Z,99.40
2019-05-20T20:49:29.667Z,99.40
2019-05-20T20:51:56.022Z,99.40
2019-05-20T20:54:22.195Z,99.30
2019-05-20T20:56:48.299Z,99.20
2019-05-20T20:59:14.383Z,99.20
2019-05-20T21:01:40.876Z,99.10
2019-05-20T21:04:06.979Z,99.10
2019-05-20T21:06:33.090Z,99.20
2019-05-20T21:08:59.194Z,99.10
2019-05-20T21:11:25.376Z,99.20
2019-05-20T21:13:51.499Z,99.10
2019-05-20T21:16:17.708Z,99.10
2019-05-20T21:18:43.815Z,99.10
2019-05-20T21:21:10.119Z,99.20
2019-05-20T21:23:38.098Z,99.30
2019-05-20T21:26:04.323Z,99.30
2019-05-20T21:28:30.439Z,99.40
2019-05-20T21:30:56.525Z,99.40
2019-05-20T21:33:24.844Z,99.40
2019-05-20T21:35:50.976Z,99.40
2019-05-20T21:38:17.198Z,99.60
2019-05-20T21:40:43.351Z,99.60
2019-05-20T21:43:09.554Z,99.60
2019-05-20T21:45:35.662Z,99.60
2019-05-20T21:48:01.787Z,99.50
2019-05-20T21:50:28.019Z,99.60
2019-05-20T21:52:54.227Z,99.60
2019-05-20T21:55:20.394Z,99.70
2019-05-20T21:57:46.591Z,99.60
2019-05-20T22:00:15.033Z,99.60
2019-05-20T22:02:41.256Z,99.50
2019-05-20T22:05:07.391Z,99.40
2019-05-20T22:07:33.539Z,99.40
2019-05-20T22:09:59.969Z,99.50
2019-05-20T22:12:26.178Z,99.50
2019-05-20T22:14:52.464Z,99.60
2019-05-20T22:17:21.411Z,99.60
2019-05-20T22:19:47.648Z,99.70
2019-05-20T22:22:21.597Z,99.60
2019-05-20T22:24:47.871Z,99.60
2019-05-20T22:27:14.001Z,99.60
2019-05-20T22:29:40.093Z,99.60
2019-05-20T22:32:06.219Z,99.60
2019-05-20T22:34:32.327Z,99.80
2019-05-20T22:36:58.657Z,99.90
2019-05-20T22:39:24.763Z,99.90
2019-05-20T22:41:50.989Z,99.90
2019-05-20T22:44:17.204Z,99.90
2019-05-20T22:46:43.319Z,99.90
2019-05-20T22:49:09.752Z,99.90
2019-05-20T22:51:35.993Z,99.90
2019-05-20T22:54:02.457Z,99.90
2019-05-20T22:56:28.679Z,99.90
2019-05-20T22:58:59.270Z,99.90
2019-05-20T23:01:27.619Z,99.90
2019-05-20T23:03:56.487Z,99.90
2019-05-20T23:06:21.911Z,99.90
2019-05-20T23:08:48.177Z,99.90
2019-05-20T23:11:14.503Z,99.90
2019-05-20T23:13:40.649Z,99.90
2019-05-20T23:16:06.815Z,99.90
2019-05-20T23:18:32.947Z,99.90
2019-05-20T23:20:59.247Z,99.90
2019-05-20T23:23:25.561Z,99.90
2019-05-20T23:25:52.939Z,99.90
2019-05-20T23:28:19.588Z,99.90
2019-05-20T23:30:45.696Z,99.90
2019-05-20T23:33:15.892Z,99.90
2019-05-20T23:35:42.064Z,99.90
2019-05-20T23:38:08.184Z,99.90
2019-05-20T23:40:34.764Z,99.90
2019-05-20T23:43:05.535Z,99.90
2019-05-20T23:45:31.671Z,99.90
2019-05-20T23:47:57.804Z,99.90
2019-05-20T23:50:24.098Z,99.90
2019-05-20T23:52:50.431Z,99.90
2019-05-20T23:55:16.631Z,99.90
2019-05-20T23:57:42.774Z,99.90
